Time;durP1;ratioP1;P1;durP2;ratioP2;P2;SDS_P1;SDS_P2;PMS_P1;PMS_P2;Temp;Humidity;BMP_temperature;BMP_pressure;BME280_temperature;BME280_humidity;BME280_pressure;Samples;Min_cycle;Max_cycle;Signal;HPM_P1;HPM_P2
2022/08/02 00:01:35;;;;;;;2.83;1.92;;;23.10;64.60;;;;;;5094288;28;20028;-74
2022/08/02 00:04:00;;;;;;;3.42;2.10;;;23.10;64.90;;;;;;5094347;28;20047;-73
2022/08/02 00:06:26;;;;;;;3.03;2.13;;;23.00;65.30;;;;;;5094145;28;20380;-76
2022/08/02 00:08:53;;;;;;;2.35;1.95;;;23.10;65.10;;;;;;5094128;28;20111;-73
2022/08/02 00:11:19;;;;;;;2.20;2.00;;;23.10;65.30;;;;;;5094163;28;20047;-74
2022/08/02 00:13:45;;;;;;;4.50;2.13;;;23.00;65.80;;;;;;5093588;28;20496;-70
2022/08/02 00:16:11;;;;;;;4.75;1.83;;;23.00;65.00;;;;;;5094090;28;20027;-72
2022/08/02 00:18:37;;;;;;;2.33;1.75;;;23.10;65.20;;;;;;5094036;28;20036;-72
2022/08/02 00:21:03;;;;;;;1.95;1.85;;;23.10;65.10;;;;;;5092437;28;20050;-72
2022/08/02 00:23:29;;;;;;;3.55;2.42;;;23.10;65.10;;;;;;5094362;28;20565;-74
2022/08/02 00:25:55;;;;;;;2.53;1.85;;;23.20;65.10;;;;;;5093976;28;20028;-74
2022/08/02 00:28:21;;;;;;;2.42;1.77;;;23.10;65.10;;;;;;5093970;28;20027;-77
2022/08/02 00:30:46;;;;;;;1.70;1.60;;;23.10;65.10;;;;;;5093837;28;20028;-73
2022/08/02 00:33:12;;;;;;;4.07;2.22;;;23.20;65.10;;;;;;5095878;28;20035;-73
2022/08/02 00:35:38;;;;;;;4.20;2.08;;;23.10;65.20;;;;;;5114126;28;20476;-73
2022/08/02 00:38:04;;;;;;;2.28;1.95;;;23.10;65.30;;;;;;5114074;28;20107;-76
2022/08/02 00:40:30;;;;;;;2.28;2.08;;;23.10;65.40;;;;;;5113935;28;20107;-73
2022/08/02 00:43:06;;;;;;;1.65;1.55;;;23.10;65.40;;;;;;5113664;28;20024;-72
2022/08/02 00:45:33;;;;;;;1.83;1.73;;;23.10;65.10;;;;;;5113827;28;20015;-71
2022/08/02 00:47:58;;;;;;;1.67;1.55;;;23.10;65.60;;;;;;5113900;28;20015;-74
2022/08/02 00:50:24;;;;;;;4.00;1.77;;;23.10;65.90;;;;;;5113817;28;20024;-75
2022/08/02 00:52:50;;;;;;;2.05;1.65;;;23.10;65.70;;;;;;5113760;28;20388;-76
2022/08/02 00:55:16;;;;;;;3.58;1.70;;;23.10;65.40;;;;;;5113763;28;20116;-75
2022/08/02 00:57:42;;;;;;;1.95;1.75;;;23.10;65.20;;;;;;5113664;28;20032;-74
2022/08/02 01:00:08;;;;;;;3.72;2.10;;;23.10;65.30;;;;;;5113655;28;20023;-75
2022/08/02 01:02:34;;;;;;;3.55;1.60;;;23.10;65.30;;;;;;5113569;28;20024;-75
2022/08/02 01:05:00;;;;;;;2.45;1.70;;;23.10;65.30;;;;;;5093681;28;20496;-74
2022/08/02 01:07:26;;;;;;;5.25;2.20;;;23.10;65.30;;;;;;5093136;28;20017;-72
2022/08/02 01:09:52;;;;;;;4.80;1.38;;;23.10;65.20;;;;;;5093129;28;20492;-73
2022/08/02 01:12:18;;;;;;;3.35;1.63;;;23.00;65.30;;;;;;5093150;28;20023;-72
2022/08/02 01:14:47;;;;;;;3.08;1.48;;;23.00;65.20;;;;;;5093112;28;20392;-73
2022/08/02 01:17:35;;;;;;;6.22;1.73;;;23.00;65.50;;;;;;5093086;28;20012;-75
2022/08/02 01:20:28;;;;;;;1.80;1.05;;;23.00;65.20;;;;;;5093064;28;20020;-71
2022/08/02 01:23:32;;;;;;;2.38;1.20;;;23.00;65.40;;;;;;5093034;28;20032;-75
2022/08/02 01:26:05;;;;;;;5.03;1.40;;;23.00;65.50;;;;;;5073127;28;20099;-73
2022/08/02 01:28:46;;;;;;;4.25;1.15;;;23.10;65.50;;;;;;5074795;28;20031;-74
2022/08/02 01:31:33;;;;;;;1.73;1.38;;;23.10;65.30;;;;;;5074792;28;20024;-73
2022/08/02 01:33:59;;;;;;;1.30;1.20;;;23.10;64.90;;;;;;5083791;28;20237;-72
2022/08/02 01:36:30;;;;;;;2.88;1.02;;;23.10;65.30;;;;;;5096744;28;20143;-72
2022/08/02 01:38:58;;;;;;;2.00;1.45;;;23.10;65.60;;;;;;5096801;28;20507;-74
2022/08/02 01:41:26;;;;;;;2.55;1.20;;;23.10;65.70;;;;;;5096705;28;20031;-72
2022/08/02 01:43:58;;;;;;;1.88;1.50;;;23.10;65.30;;;;;;5096878;28;20020;-73
2022/08/02 01:46:26;;;;;;;1.60;1.38;;;23.10;65.70;;;;;;5095581;28;20024;-74
2022/08/02 01:48:55;;;;;;;1.52;1.27;;;23.20;66.00;;;;;;5096878;28;20020;-73
2022/08/02 01:52:20;;;;;;;5.00;1.40;;;23.20;66.00;;;;;;5096785;28;20031;-73
2022/08/02 01:54:12;;;;;;;3.20;1.70;;;23.20;66.00;;;;;;5096508;28;20035;-71
2022/08/02 01:56:40;;;;;;;2.45;1.55;;;23.20;65.50;;;;;;5096667;28;20084;-74
2022/08/02 01:59:10;;;;;;;2.45;1.42;;;23.30;65.70;;;;;;5096615;28;20110;-72
2022/08/02 02:01:38;;;;;;;2.15;1.30;;;23.30;65.60;;;;;;5096457;28;20591;-75
2022/08/02 02:04:07;;;;;;;1.77;1.42;;;23.30;65.40;;;;;;5103857;28;20532;-72
2022/08/02 02:06:35;;;;;;;2.15;1.10;;;23.30;65.10;;;;;;5116953;28;20121;-75
2022/08/02 02:09:02;;;;;;;5.18;1.63;;;23.40;65.50;;;;;;5116940;28;20016;-74
2022/08/02 02:11:28;;;;;;;2.10;1.45;;;23.40;65.70;;;;;;5115230;28;20031;-74
2022/08/02 02:13:57;;;;;;;2.50;1.48;;;23.40;65.60;;;;;;5096499;28;20028;-73
2022/08/02 02:16:26;;;;;;;1.98;1.15;;;23.40;64.40;;;;;;5096388;28;20384;-76
2022/08/02 02:18:52;;;;;;;3.45;1.33;;;23.40;64.00;;;;;;5096394;28;20028;-71
2022/08/02 02:21:18;;;;;;;2.05;1.48;;;23.40;64.60;;;;;;5096134;28;20502;-75
2022/08/02 02:23:44;;;;;;;2.17;1.10;;;23.40;65.10;;;;;;5096255;28;20028;-71
2022/08/02 02:26:13;;;;;;;1.38;1.17;;;23.50;65.20;;;;;;5096238;28;20024;-70
2022/08/02 02:28:39;;;;;;;1.67;1.40;;;23.50;65.00;;;;;;5096192;28;20016;-71
2022/08/02 02:31:34;;;;;;;1.27;1.17;;;23.50;65.10;;;;;;5096121;28;20085;-76
2022/08/02 02:34:04;;;;;;;6.32;1.38;;;23.50;65.20;;;;;;5102054;28;20383;-73
2022/08/02 02:36:33;;;;;;;3.22;1.63;;;23.60;65.50;;;;;;5114448;28;20062;-74
2022/08/02 02:39:02;;;;;;;3.53;1.45;;;23.60;65.60;;;;;;5116320;28;20388;-71
2022/08/02 02:41:28;;;;;;;3.70;2.05;;;23.60;65.10;;;;;;5114860;28;20028;-71
2022/08/02 02:43:57;;;;;;;1.85;1.70;;;23.60;64.70;;;;;;5116308;28;20357;-72
2022/08/02 02:46:25;;;;;;;2.63;1.70;;;23.60;63.90;;;;;;5116083;28;20035;-74
2022/08/02 02:48:51;;;;;;;4.80;1.55;;;23.60;64.60;;;;;;5116114;28;20016;-75
2022/08/02 02:51:21;;;;;;;5.22;1.65;;;23.50;65.10;;;;;;5116038;28;20111;-71
2022/08/02 02:53:49;;;;;;;7.57;1.90;;;23.50;65.60;;;;;;5115983;28;20472;-72
2022/08/02 02:56:16;;;;;;;2.65;1.83;;;23.60;66.00;;;;;;5114726;28;20039;-74
2022/08/02 02:58:43;;;;;;;3.08;1.73;;;23.60;65.80;;;;;;5114706;28;20038;-73
2022/08/02 03:01:29;;;;;;;3.25;1.45;;;23.60;65.00;;;;;;5104998;28;20358;-76
2022/08/02 03:03:58;;;;;;;3.78;1.77;;;23.60;65.00;;;;;;5095289;28;20028;-72
2022/08/02 03:06:24;;;;;;;3.60;1.90;;;23.60;65.60;;;;;;5095415;28;20016;-73
2022/08/02 03:08:50;;;;;;;5.22;1.70;;;23.60;65.80;;;;;;5095322;28;20028;-73
2022/08/02 03:11:17;;;;;;;3.30;1.60;;;23.60;65.90;;;;;;5095288;28;20079;-72
2022/08/02 03:13:43;;;;;;;2.70;1.50;;;23.60;65.80;;;;;;5095206;28;20102;-73
2022/08/02 03:16:10;;;;;;;5.22;2.08;;;23.50;66.60;;;;;;5095100;28;20020;-71
2022/08/02 03:18:38;;;;;;;4.38;1.90;;;23.50;66.40;;;;;;5095024;28;20016;-75
2022/08/02 03:21:12;;;;;;;3.22;1.73;;;23.50;66.60;;;;;;5094700;28;20448;-77
2022/08/02 03:23:40;;;;;;;7.80;1.65;;;23.50;66.60;;;;;;5094983;28;20023;-73
2022/08/02 03:26:07;;;;;;;6.43;2.10;;;23.50;66.70;;;;;;5095039;28;20070;-72
2022/08/02 03:28:33;;;;;;;6.57;2.20;;;23.50;66.80;;;;;;5094917;28;20023;-75
2022/08/02 03:31:00;;;;;;;3.95;1.80;;;23.50;67.50;;;;;;5094803;28;20109;-69
2022/08/02 03:33:26;;;;;;;3.15;2.05;;;23.40;66.80;;;;;;5094625;28;20551;-75
2022/08/02 03:35:57;;;;;;;4.85;1.90;;;23.40;66.90;;;;;;5100433;27;20389;-73
2022/08/02 03:38:24;;;;;;;2.15;1.92;;;23.30;66.90;;;;;;5113861;28;20027;-71
2022/08/02 03:40:50;;;;;;;2.60;1.70;;;23.40;67.10;;;;;;5114925;28;20020;-75
2022/08/02 03:43:17;;;;;;;2.60;1.90;;;23.30;67.20;;;;;;5114922;28;20073;-72
2022/08/02 03:45:46;;;;;;;4.60;1.98;;;23.30;66.90;;;;;;5114797;28;20051;-73
2022/08/02 03:48:13;;;;;;;2.42;2.00;;;23.30;67.20;;;;;;5114131;28;20059;-75
2022/08/02 03:50:41;;;;;;;3.15;1.80;;;23.30;67.30;;;;;;5114511;28;20049;-72
2022/08/02 03:53:08;;;;;;;4.00;2.10;;;23.30;67.30;;;;;;5114712;28;20020;-74
2022/08/02 03:55:34;;;;;;;2.10;1.90;;;23.40;67.50;;;;;;5113026;28;20028;-71
2022/08/02 03:58:00;;;;;;;3.75;1.67;;;23.30;67.40;;;;;;5114660;28;20027;-74
2022/08/02 04:00:26;;;;;;;4.57;2.00;;;23.30;67.50;;;;;;5097942;28;20024;-72
2022/08/02 04:02:52;;;;;;;14.25;2.38;;;23.30;67.60;;;;;;5094206;28;20385;-73
2022/08/02 04:05:18;;;;;;;3.95;1.83;;;23.40;68.10;;;;;;5094262;28;20031;-72
2022/08/02 04:07:44;;;;;;;3.05;1.90;;;23.40;68.10;;;;;;5094176;28;20028;-70
2022/08/02 04:10:10;;;;;;;3.33;2.00;;;23.40;68.20;;;;;;5094169;28;20024;-71
2022/08/02 04:12:37;;;;;;;7.55;2.17;;;23.40;68.30;;;;;;5094118;28;20028;-75
2022/08/02 04:15:06;;;;;;;2.97;1.83;;;23.40;68.40;;;;;;5093977;28;20036;-70
2022/08/02 04:17:34;;;;;;;6.80;2.67;;;23.40;68.40;;;;;;5093892;28;20020;-75
2022/08/02 04:20:02;;;;;;;4.90;2.55;;;23.30;68.60;;;;;;5093924;28;20465;-72
2022/08/02 04:22:39;;;;;;;2.97;2.08;;;23.30;68.80;;;;;;5092434;28;20044;-73
2022/08/02 04:25:07;;;;;;;2.55;2.30;;;23.30;68.90;;;;;;5093748;28;20028;-72
2022/08/02 04:27:36;;;;;;;3.65;1.70;;;23.30;68.90;;;;;;5093814;28;20020;-75
2022/08/02 04:30:03;;;;;;;3.50;2.58;;;23.30;69.10;;;;;;5093577;28;20020;-75
2022/08/02 04:32:30;;;;;;;3.45;2.30;;;23.30;70.20;;;;;;5093593;28;20431;-75
2022/08/02 04:34:56;;;;;;;3.13;2.30;;;23.30;69.60;;;;;;5093710;28;20024;-75
2022/08/02 04:37:24;;;;;;;3.13;2.20;;;23.30;69.40;;;;;;5093584;28;20051;-73
2022/08/02 04:39:49;;;;;;;5.13;2.47;;;23.30;69.50;;;;;;5093481;28;20016;-73
2022/08/02 04:42:23;;;;;;;4.72;2.72;;;23.30;69.50;;;;;;5093577;28;20080;-72
2022/08/02 04:44:50;;;;;;;;;;;23.30;69.70;;;;;;5092472;28;20389;-73
2022/08/02 04:47:16;;;;;;;4.97;2.70;;;23.30;68.90;;;;;;5092162;28;19943;-70
2022/08/02 04:49:42;;;;;;;4.63;2.00;;;23.40;69.60;;;;;;5093449;28;20024;-76
2022/08/02 04:52:07;;;;;;;5.60;2.45;;;23.30;69.50;;;;;;5093420;28;20081;-74
2022/08/02 04:54:33;;;;;;;5.30;2.65;;;23.30;70.50;;;;;;5093800;28;20491;-75
2022/08/02 04:56:59;;;;;;;2.30;2.10;;;23.40;70.00;;;;;;5093359;28;20480;-75
2022/08/02 04:59:25;;;;;;;3.50;1.95;;;23.40;69.60;;;;;;5092959;28;20036;-71
2022/08/02 05:01:51;;;;;;;2.90;1.85;;;23.40;69.60;;;;;;5093178;28;20020;-76
2022/08/02 05:04:17;;;;;;;5.75;1.85;;;23.40;68.90;;;;;;5093198;28;20031;-70
2022/08/02 05:06:43;;;;;;;1.73;1.50;;;23.40;68.50;;;;;;5093100;28;20020;-70
2022/08/02 05:09:09;;;;;;;4.90;1.75;;;23.30;68.50;;;;;;5093180;28;20381;-71
2022/08/02 05:11:34;;;;;;;3.20;1.60;;;23.40;68.50;;;;;;5093072;28;20523;-73
2022/08/02 05:14:01;;;;;;;2.28;1.33;;;23.30;68.50;;;;;;5092996;28;20052;-70
2022/08/02 05:16:27;;;;;;;1.77;1.23;;;23.30;68.60;;;;;;5092895;28;20024;-74
2022/08/02 05:18:53;;;;;;;1.85;1.25;;;23.40;68.60;;;;;;5092979;28;20031;-74
2022/08/02 05:21:19;;;;;;;1.25;1.00;;;23.40;68.80;;;;;;5092637;28;20370;-73
2022/08/02 05:23:46;;;;;;;1.80;1.40;;;23.50;69.10;;;;;;5091548;28;20051;-74
2022/08/02 05:26:11;;;;;;;2.63;1.23;;;23.50;69.10;;;;;;5093257;28;20024;-71
2022/08/02 05:28:37;;;;;;;2.08;1.35;;;23.60;69.30;;;;;;5092808;28;20032;-73
2022/08/02 05:31:03;;;;;;;3.65;1.20;;;23.60;69.70;;;;;;5107530;28;20023;-70
2022/08/02 05:33:29;;;;;;;2.20;1.58;;;23.70;69.90;;;;;;5132665;28;20027;-72
2022/08/02 05:35:54;;;;;;;2.75;1.45;;;23.80;69.80;;;;;;5132513;28;20453;-72
2022/08/02 05:38:20;;;;;;;2.70;1.92;;;23.90;69.70;;;;;;5132713;28;20468;-70
2022/08/02 05:40:46;;;;;;;2.78;1.90;;;23.90;69.50;;;;;;5132553;28;20030;-71
2022/08/02 05:43:13;;;;;;;2.20;1.83;;;24.00;69.40;;;;;;5131251;28;20071;-71
2022/08/02 05:45:40;;;;;;;2.63;2.28;;;24.10;69.20;;;;;;5132368;28;20023;-72
2022/08/02 05:48:07;;;;;;;8.75;2.80;;;24.20;69.20;;;;;;5132509;28;20023;-72
2022/08/02 05:50:38;;;;;;;2.20;1.80;;;24.30;69.40;;;;;;5129189;28;20027;-70
2022/08/02 05:53:10;;;;;;;5.97;2.05;;;24.40;69.50;;;;;;5126394;28;20028;-71
2022/08/02 05:55:52;;;;;;;3.92;1.60;;;24.50;68.40;;;;;;5117986;28;20357;-71
2022/08/02 05:58:29;;;;;;;2.42;1.88;;;24.60;68.00;;;;;;5118645;28;20028;-72
2022/08/02 06:00:58;;;;;;;2.15;1.85;;;24.60;67.30;;;;;;5117818;28;20032;-72
2022/08/02 06:03:56;;;;;;;2.15;1.65;;;24.70;67.80;;;;;;5121135;28;20060;-72
2022/08/02 06:06:25;;;;;;;3.75;1.73;;;24.80;67.40;;;;;;5121022;28;20465;-71
2022/08/02 06:08:58;;;;;;;3.95;2.13;;;24.90;67.80;;;;;;5119436;28;20047;-72
2022/08/02 06:11:41;;;;;;;2.10;1.90;;;24.90;67.40;;;;;;5121183;27;20020;-70
2022/08/02 06:14:08;;;;;;;3.10;2.28;;;25.00;66.70;;;;;;5126302;27;20440;-71
2022/08/02 06:16:34;;;;;;;2.45;1.75;;;25.10;66.70;;;;;;5124729;27;20143;-71
2022/08/02 06:19:01;;;;;;;3.13;2.00;;;25.10;67.00;;;;;;5124597;27;20062;-72
2022/08/02 06:21:27;;;;;;;3.60;2.20;;;25.20;66.50;;;;;;5116402;28;20084;-71
2022/08/02 06:23:54;;;;;;;6.40;2.47;;;25.30;66.20;;;;;;5116027;28;20030;-73
2022/08/02 06:26:21;;;;;;;6.53;2.83;;;25.30;66.10;;;;;;5096176;28;20469;-72
2022/08/02 06:28:50;;;;;;;4.95;2.72;;;25.30;65.60;;;;;;5096039;28;20044;-71
2022/08/02 06:31:16;;;;;;;2.75;2.50;;;25.40;65.20;;;;;;5096013;28;20028;-71
2022/08/02 06:33:42;;;;;;;4.28;2.60;;;25.40;65.90;;;;;;5096084;28;20503;-72
2022/08/02 06:36:15;;;;;;;4.25;2.90;;;25.50;65.80;;;;;;5094651;28;20028;-70
2022/08/02 06:39:06;;;;;;;4.65;3.08;;;25.60;65.40;;;;;;5096012;28;20511;-71
2022/08/02 06:41:41;;;;;;;2.42;2.00;;;25.60;64.60;;;;;;5095797;28;20385;-72
2022/08/02 06:44:08;;;;;;;2.92;2.40;;;25.70;64.60;;;;;;5095928;28;20021;-71
2022/08/02 06:46:34;;;;;;;4.45;2.80;;;25.70;64.70;;;;;;5095709;28;20024;-71
2022/08/02 06:49:01;;;;;;;4.80;3.15;;;25.80;64.50;;;;;;5095761;28;20077;-71
2022/08/02 06:51:27;;;;;;;6.38;3.35;;;25.90;64.00;;;;;;5095680;28;20027;-72
2022/08/02 06:53:53;;;;;;;6.78;3.70;;;26.00;63.20;;;;;;5095711;28;20073;-71
2022/08/02 06:56:19;;;;;;;7.45;3.63;;;26.10;62.00;;;;;;5096599;28;20032;-71
2022/08/02 06:58:45;;;;;;;7.43;3.30;;;26.20;62.30;;;;;;5095592;28;20077;-71
2022/08/02 07:01:11;;;;;;;3.50;2.47;;;26.30;62.30;;;;;;5094030;28;20458;-71
2022/08/02 07:03:39;;;;;;;6.35;3.25;;;26.30;62.80;;;;;;5095296;28;20031;-71
2022/08/02 07:06:08;;;;;;;5.05;2.80;;;26.40;62.20;;;;;;5095332;28;20159;-71
2022/08/02 07:08:37;;;;;;;5.40;3.05;;;26.50;61.80;;;;;;5095252;28;20073;-71
2022/08/02 07:11:08;;;;;;;3.75;3.10;;;26.50;61.30;;;;;;5095340;28;20446;-71
2022/08/02 07:13:34;;;;;;;4.40;2.70;;;26.40;61.10;;;;;;5095319;28;20055;-71
2022/08/02 07:16:02;;;;;;;3.60;2.60;;;26.40;61.20;;;;;;5095191;28;20073;-71
2022/08/02 07:18:28;;;;;;;5.93;3.22;;;26.40;60.90;;;;;;5095126;28;20387;-71
2022/08/02 07:20:53;;;;;;;5.80;3.10;;;26.30;59.70;;;;;;5093511;28;20048;-72
2022/08/02 07:23:19;;;;;;;6.80;3.83;;;26.20;60.10;;;;;;5094897;28;20073;-71
2022/08/02 07:25:46;;;;;;;7.15;3.00;;;26.10;59.80;;;;;;5095243;28;20028;-71
2022/08/02 07:28:14;;;;;;;6.75;2.75;;;26.00;60.70;;;;;;5095009;28;20095;-72
2022/08/02 07:30:41;;;;;;;3.63;2.45;;;26.00;60.50;;;;;;5093682;28;20020;-71
2022/08/02 07:33:07;;;;;;;4.50;2.75;;;26.00;60.90;;;;;;5094840;28;20035;-71
2022/08/02 07:35:33;;;;;;;3.92;3.30;;;26.00;61.40;;;;;;5094902;28;20412;-72
2022/08/02 07:37:59;;;;;;;3.22;2.90;;;26.00;61.20;;;;;;5094854;28;20028;-71
2022/08/02 07:40:26;;;;;;;3.47;2.50;;;26.00;61.30;;;;;;5094703;28;20099;-72
2022/08/02 07:42:54;;;;;;;3.78;2.90;;;26.00;61.40;;;;;;5094745;28;20385;-71
2022/08/02 07:45:21;;;;;;;2.47;2.28;;;26.00;60.80;;;;;;5094477;28;20496;-71
2022/08/02 07:47:47;;;;;;;3.72;2.25;;;26.00;59.70;;;;;;5094522;28;20024;-72
2022/08/02 07:50:15;;;;;;;2.67;2.03;;;26.00;59.60;;;;;;5093183;28;20047;-71
2022/08/02 07:52:42;;;;;;;3.03;2.42;;;26.00;59.40;;;;;;5094526;28;20027;-71
2022/08/02 07:55:09;;;;;;;6.28;2.67;;;26.00;60.60;;;;;;5094607;28;20476;-71
2022/08/02 07:57:36;;;;;;;3.65;1.90;;;26.00;60.20;;;;;;5094480;28;20043;-71
2022/08/02 08:00:03;;;;;;;3.17;2.28;;;26.00;59.20;;;;;;5094312;28;20020;-71
2022/08/02 08:02:29;;;;;;;5.30;2.50;;;26.00;59.20;;;;;;5094358;28;20052;-71
2022/08/02 08:04:55;;;;;;;3.00;2.10;;;25.90;59.30;;;;;;5094214;28;20286;-71
2022/08/02 08:07:22;;;;;;;2.65;1.80;;;25.80;59.30;;;;;;5094222;28;20095;-72
2022/08/02 08:09:49;;;;;;;3.78;2.03;;;25.80;58.80;;;;;;5094163;28;20020;-71
2022/08/02 08:12:15;;;;;;;3.00;2.10;;;25.80;58.70;;;;;;5094211;28;20384;-72
2022/08/02 08:14:41;;;;;;;4.00;1.80;;;25.80;58.60;;;;;;5094233;28;20032;-72
2022/08/02 08:17:08;;;;;;;4.50;1.92;;;25.80;58.30;;;;;;5094143;28;20024;-71
2022/08/02 08:19:34;;;;;;;1.75;1.60;;;25.80;58.30;;;;;;5094098;28;20024;-71
2022/08/02 08:22:00;;;;;;;1.63;1.52;;;25.80;58.70;;;;;;5092473;28;20090;-72
2022/08/02 08:24:27;;;;;;;1.92;1.50;;;25.80;59.10;;;;;;5094112;27;20020;-71
2022/08/02 08:26:53;;;;;;;2.08;1.45;;;25.90;59.00;;;;;;5103933;28;20023;-71
2022/08/02 08:29:20;;;;;;;3.30;1.55;;;26.00;59.10;;;;;;5114227;28;20027;-72
2022/08/02 08:31:46;;;;;;;1.60;1.50;;;26.00;58.60;;;;;;5114172;28;20110;-72
2022/08/02 08:34:12;;;;;;;3.75;1.55;;;26.10;58.60;;;;;;5113804;28;20103;-72
2022/08/02 08:36:39;;;;;;;1.73;1.55;;;26.20;57.50;;;;;;5113626;28;20024;-71
2022/08/02 08:39:05;;;;;;;4.80;1.50;;;26.40;57.00;;;;;;5114057;28;20503;-72
2022/08/02 08:41:31;;;;;;;2.75;1.60;;;26.40;57.20;;;;;;5113964;28;20031;-72
2022/08/02 08:43:58;;;;;;;1.45;1.33;;;26.50;56.80;;;;;;5112659;28;20027;-72
2022/08/02 08:46:29;;;;;;;3.08;1.70;;;26.60;56.50;;;;;;5112502;28;20030;-71
2022/08/02 08:49:00;;;;;;;4.68;1.60;;;26.70;56.70;;;;;;5113750;28;20111;-72
2022/08/02 08:51:30;;;;;;;1.85;1.60;;;26.80;56.20;;;;;;5113766;28;20035;-72
2022/08/02 08:54:00;;;;;;;2.05;1.38;;;26.90;55.90;;;;;;5093142;28;20477;-72
2022/08/02 08:56:34;;;;;;;1.50;1.40;;;27.00;55.90;;;;;;5093384;28;20039;-72
2022/08/02 08:59:04;;;;;;;2.28;1.40;;;27.10;55.80;;;;;;5093464;28;20554;-71
2022/08/02 09:01:30;;;;;;;1.88;1.50;;;27.10;55.50;;;;;;5091959;28;20032;-72
2022/08/02 09:03:56;;;;;;;4.30;1.52;;;27.20;55.10;;;;;;5093287;28;20031;-71
2022/08/02 09:06:23;;;;;;;1.35;1.25;;;27.20;55.30;;;;;;5091947;28;20064;-72
2022/08/02 09:08:49;;;;;;;2.20;1.60;;;27.30;56.00;;;;;;5093316;28;20065;-72
2022/08/02 09:11:17;;;;;;;3.72;1.40;;;27.40;56.20;;;;;;5091976;28;20028;-72
2022/08/02 09:14:00;;;;;;;1.40;1.27;;;27.50;55.60;;;;;;5093112;28;20376;-72
2022/08/02 09:16:32;;;;;;;1.60;1.45;;;27.60;55.50;;;;;;5091958;28;20081;-71
2022/08/02 09:18:59;;;;;;;2.55;2.00;;;27.70;54.80;;;;;;5093061;28;20054;-71
2022/08/02 09:21:34;;;;;;;2.03;1.70;;;27.70;54.30;;;;;;5091482;28;20051;-69
2022/08/02 09:24:00;;;;;;;1.90;1.38;;;27.70;53.40;;;;;;5093373;28;20022;-71
2022/08/02 09:26:26;;;;;;;1.73;1.60;;;27.70;53.50;;;;;;5093076;28;20099;-71
2022/08/02 09:29:00;;;;;;;1.40;1.30;;;27.70;53.80;;;;;;5092969;28;20115;-72
2022/08/02 09:31:26;;;;;;;2.65;1.45;;;27.70;53.60;;;;;;5092997;28;20077;-72
2022/08/02 09:33:55;;;;;;;1.60;1.48;;;27.70;53.40;;;;;;5093009;28;20028;-72
2022/08/02 09:36:21;;;;;;;1.20;1.10;;;27.70;53.90;;;;;;5091733;28;20028;-72
2022/08/02 09:39:00;;;;;;;1.63;1.50;;;27.80;54.60;;;;;;5093055;28;20028;-72
2022/08/02 09:41:31;;;;;;;3.03;1.55;;;27.90;53.80;;;;;;5092834;28;20028;-70
2022/08/02 09:43:59;;;;;;;2.10;1.67;;;28.00;52.50;;;;;;5092939;28;20028;-72
2022/08/02 09:46:28;;;;;;;2.22;1.42;;;28.20;52.30;;;;;;5092847;28;20380;-70
2022/08/02 09:48:59;;;;;;;3.83;1.10;;;28.30;51.90;;;;;;5095607;28;20047;-70
2022/08/02 09:51:30;;;;;;;2.75;1.30;;;28.50;51.80;;;;;;5096691;28;20028;-70
2022/08/02 09:54:00;;;;;;;1.25;1.13;;;28.60;51.30;;;;;;5096980;28;20024;-70
2022/08/02 09:56:27;;;;;;;2.05;1.00;;;28.80;51.70;;;;;;5097093;28;20047;-70
2022/08/02 09:58:55;;;;;;;1.10;1.00;;;28.90;51.10;;;;;;5096802;28;20035;-70
2022/08/02 10:01:31;;;;;;;1.63;1.20;;;29.10;51.30;;;;;;5096676;28;20020;-69
2022/08/02 10:04:03;;;;;;;13.73;2.05;;;29.20;50.10;;;;;;5096675;28;20016;-70
2022/08/02 10:06:29;;;;;;;3.42;1.42;;;29.40;50.20;;;;;;5095267;28;20490;-70
2022/08/02 10:08:55;;;;;;;2.25;1.50;;;29.40;47.70;;;;;;5096602;28;20089;-70
2022/08/02 10:11:22;;;;;;;2.03;1.30;;;29.50;48.80;;;;;;5096545;28;20028;-70
2022/08/02 10:13:49;;;;;;;1.45;1.30;;;29.60;48.20;;;;;;5096492;28;20016;-70
2022/08/02 10:16:16;;;;;;;2.15;1.35;;;29.60;48.30;;;;;;5096460;28;20024;-70
2022/08/02 10:18:42;;;;;;;1.25;1.15;;;29.70;48.60;;;;;;5096369;28;20016;-70
2022/08/02 10:21:28;;;;;;;2.30;1.20;;;29.70;49.10;;;;;;5094592;28;20048;-70
2022/08/02 10:24:20;;;;;;;1.35;1.10;;;29.70;48.30;;;;;;5096125;28;20480;-70
2022/08/02 10:26:46;;;;;;;2.47;1.13;;;29.80;47.60;;;;;;5090319;28;20115;-70
2022/08/02 10:29:16;;;;;;;1.83;1.42;;;29.80;47.60;;;;;;5096150;28;20020;-70
2022/08/02 10:31:56;;;;;;;1.35;1.25;;;29.80;48.20;;;;;;5096142;28;20546;-70
2022/08/02 10:34:29;;;;;;;1.40;0.88;;;29.90;48.50;;;;;;5096056;28;20074;-70
2022/08/02 10:36:56;;;;;;;1.50;1.30;;;30.00;47.70;;;;;;5094672;28;20024;-70
2022/08/02 10:39:22;;;;;;;1.50;1.40;;;30.00;48.00;;;;;;5095952;28;20028;-70
2022/08/02 10:41:50;;;;;;;2.95;1.38;;;30.10;48.10;;;;;;5094579;28;20031;-70
2022/08/02 10:44:28;;;;;;;2.40;1.30;;;30.10;47.70;;;;;;5095828;28;20043;-70
2022/08/02 10:47:20;;;;;;;2.67;1.15;;;30.10;47.90;;;;;;5095865;28;20377;-70
2022/08/02 10:49:49;;;;;;;1.30;1.00;;;30.10;48.30;;;;;;5095575;28;20046;-70
2022/08/02 10:52:16;;;;;;;8.20;1.20;;;30.20;48.70;;;;;;5095670;28;20052;-70
2022/08/02 10:54:46;;;;;;;2.75;1.27;;;30.20;47.40;;;;;;5095825;28;20024;-70
2022/08/02 10:57:32;;;;;;;1.55;1.30;;;30.20;47.30;;;;;;5095870;28;20085;-70
2022/08/02 11:00:12;;;;;;;3.67;1.40;;;30.20;46.90;;;;;;5095380;28;20035;-70
2022/08/02 11:02:43;;;;;;;3.00;1.30;;;30.20;46.60;;;;;;5095544;28;20055;-70
2022/08/02 11:05:11;;;;;;;2.60;1.33;;;30.20;45.70;;;;;;5095482;28;20066;-70
2022/08/02 11:07:45;;;;;;;1.30;1.20;;;30.20;45.70;;;;;;5095366;28;20024;-70
2022/08/02 11:10:32;;;;;;;1.60;1.50;;;30.20;45.80;;;;;;5095430;28;20065;-70
2022/08/02 11:13:06;;;;;;;1.67;1.30;;;30.10;46.30;;;;;;5095345;28;20104;-70
2022/08/02 11:15:52;;;;;;;4.85;1.40;;;30.20;45.20;;;;;;5095349;28;20067;-69
2022/08/02 11:18:19;;;;;;;2.88;1.40;;;30.20;45.20;;;;;;5095215;28;20095;-69
2022/08/02 11:20:45;;;;;;;3.95;1.30;;;30.20;44.90;;;;;;5093589;28;20024;-69
2022/08/02 11:23:39;;;;;;;2.90;1.20;;;30.30;45.60;;;;;;5095186;28;20032;-69
2022/08/02 11:26:29;;;;;;;3.78;1.10;;;30.50;44.80;;;;;;5095383;28;20465;-69
2022/08/02 11:29:00;;;;;;;2.13;1.38;;;30.60;44.50;;;;;;5094778;28;20034;-70
2022/08/02 11:31:26;;;;;;;3.65;1.50;;;30.70;43.10;;;;;;5094750;28;20034;-70
2022/08/02 11:33:52;;;;;;;3.20;1.70;;;30.80;43.70;;;;;;5094623;28;20039;-69
2022/08/02 11:36:18;;;;;;;2.03;1.60;;;30.90;43.40;;;;;;5094727;28;20032;-70
2022/08/02 11:38:44;;;;;;;2.90;1.40;;;31.00;43.60;;;;;;5094829;28;20031;-70
2022/08/02 11:41:21;;;;;;;1.42;1.20;;;31.20;43.30;;;;;;5094729;28;20016;-70
2022/08/02 11:43:53;;;;;;;3.53;1.25;;;31.40;43.30;;;;;;5094696;28;20027;-69
2022/08/02 11:46:19;;;;;;;1.53;1.43;;;31.60;43.60;;;;;;5094568;28;20031;-70
2022/08/02 11:48:45;;;;;;;1.15;1.05;;;31.80;43.20;;;;;;5094457;28;20024;-70
2022/08/02 11:51:14;;;;;;;1.45;1.30;;;32.00;42.30;;;;;;5094480;28;20039;-70
2022/08/02 11:53:51;;;;;;;1.45;1.10;;;32.20;41.90;;;;;;5094501;28;20027;-70
2022/08/02 11:56:25;;;;;;;1.58;1.20;;;32.40;41.50;;;;;;5111889;28;20046;-70
2022/08/02 11:59:08;;;;;;;1.77;1.20;;;32.70;40.80;;;;;;5113441;28;20388;-70
2022/08/02 12:01:37;;;;;;;2.20;1.20;;;32.90;40.90;;;;;;5114705;28;20031;-70
2022/08/02 12:04:05;;;;;;;1.33;0.98;;;33.10;39.60;;;;;;5114327;28;20036;-70
2022/08/02 12:06:33;;;;;;;3.15;1.20;;;33.20;39.40;;;;;;5114681;28;20243;-70
2022/08/02 12:09:02;;;;;;;1.88;1.15;;;33.30;38.50;;;;;;5112623;28;20031;-70
2022/08/02 12:11:28;;;;;;;1.10;1.00;;;33.50;38.10;;;;;;5113968;28;20028;-70
2022/08/02 12:13:56;;;;;;;3.50;1.35;;;33.60;37.00;;;;;;5114521;28;20098;-70
2022/08/02 12:19:26;;;;;;;1.10;1.00;;;33.80;36.70;;;;;;5071585;28;20032;-70
2022/08/02 12:22:26;;;;;;;5.90;1.13;;;33.90;35.70;;;;;;5105781;28;20044;-70
2022/08/02 12:24:55;;;;;;;1.02;0.93;;;34.00;36.00;;;;;;5112685;28;20069;-70
2022/08/02 12:27:32;;;;;;;0.98;0.90;;;34.10;36.30;;;;;;5113955;28;20047;-70
2022/08/02 12:30:09;;;;;;;1.60;1.25;;;34.20;37.10;;;;;;5112862;28;20020;-71
2022/08/02 12:32:35;;;;;;;1.70;1.13;;;34.30;36.10;;;;;;5114153;28;20019;-69
2022/08/02 12:35:06;;;;;;;1.58;1.08;;;34.40;35.20;;;;;;5113990;28;20029;-70
2022/08/02 12:37:32;;;;;;;5.35;1.60;;;34.40;35.20;;;;;;5114107;28;20479;-70
2022/08/02 12:40:17;;;;;;;3.85;1.20;;;34.40;35.20;;;;;;5113957;28;20024;-70
2022/08/02 12:42:51;;;;;;;2.53;1.10;;;34.40;35.00;;;;;;5114051;28;20396;-70
2022/08/02 12:45:17;;;;;;;1.85;1.20;;;34.30;34.40;;;;;;5113750;28;20438;-70
2022/08/02 12:47:45;;;;;;;1.10;1.00;;;34.20;35.00;;;;;;5097965;28;20016;-70
2022/08/02 12:50:39;;;;;;;1.13;1.02;;;34.20;35.10;;;;;;5093297;28;20028;-70
2022/08/02 12:53:08;;;;;;;1.80;1.00;;;34.10;34.40;;;;;;5091244;28;20473;-70
2022/08/02 12:55:39;;;;;;;2.80;1.15;;;34.00;34.40;;;;;;5093692;28;20027;-70
2022/08/02 12:58:05;;;;;;;1.45;1.30;;;33.90;34.40;;;;;;5093385;28;20039;-70
2022/08/02 13:00:34;;;;;;;1.88;1.15;;;33.90;34.30;;;;;;5093192;28;20056;-70
2022/08/02 13:03:01;;;;;;;1.58;1.00;;;33.80;33.90;;;;;;5093258;28;20016;-70